Time;durP1;ratioP1;P1;durP2;ratioP2;P2;SDS_P1;SDS_P2;PMS_P1;PMS_P2;Temp;Humidity;BMP_temperature;BMP_pressure;BME280_temperature;BME280_humidity;BME280_pressure;Samples;Min_cycle;Max_cycle;Signal;HPM_P1;HPM_P2
2023/02/20 00:01:36;;;;;;;25.53;17.90;;;;;;;;;;4385411;32;318833;-83
2023/02/20 00:04:04;;;;;;;28.40;18.30;;;;;;;;;;4375622;32;318757;-81
2023/02/20 00:06:31;;;;;;;25.57;16.93;;;;;;;;;;4386596;32;319248;-83
2023/02/20 00:08:59;;;;;;;33.97;18.80;;;;;;;;;;4385600;32;351925;-82
2023/02/20 00:11:26;;;;;;;36.37;20.93;;;;;;;;;;4371595;32;418152;-84
2023/02/20 00:13:55;;;;;;;34.20;23.33;;;;;;;;;;4385168;32;319155;-82
2023/02/20 00:16:22;;;;;;;42.97;26.63;;;;;;;;;;4373704;32;318750;-83
2023/02/20 00:18:49;;;;;;;35.47;24.77;;;;;;;;;;4385070;32;319008;-82
2023/02/20 00:21:17;;;;;;;37.30;28.00;;;;;;;;;;4374800;32;318679;-81
2023/02/20 00:23:44;;;;;;;87.97;67.03;;;;;;;;;;4384888;32;318921;-82
2023/02/20 00:26:13;;;;;;;52.90;44.27;;;;;;;;;;4374610;32;319000;-83
2023/02/20 00:28:40;;;;;;;69.23;53.20;;;;;;;;;;4385494;32;332903;-82
2023/02/20 00:31:13;;;;;;;49.33;38.53;;;;;;;;;;4376218;32;318970;-83
2023/02/20 00:33:41;;;;;;;47.03;35.90;;;;;;;;;;4384984;32;318623;-82
2023/02/20 00:36:14;;;;;;;43.30;36.17;;;;;;;;;;4373184;32;319146;-82
2023/02/20 00:38:43;;;;;;;45.67;37.50;;;;;;;;;;4385436;32;318564;-82
2023/02/20 00:41:13;;;;;;;50.27;41.43;;;;;;;;;;4373263;32;357557;-81
2023/02/20 00:43:40;;;;;;;34.73;29.63;;;;;;;;;;4385507;32;334220;-82
2023/02/20 00:46:12;;;;;;;30.87;21.33;;;;;;;;;;4375598;32;319003;-82
2023/02/20 00:48:39;;;;;;;31.00;17.90;;;;;;;;;;4384786;32;319000;-81
2023/02/20 00:51:07;;;;;;;28.57;17.50;;;;;;;;;;4377252;32;318934;-83
2023/02/20 00:53:34;;;;;;;22.30;16.10;;;;;;;;;;4387634;32;318670;-82
2023/02/20 00:56:02;;;;;;;23.63;15.93;;;;;;;;;;4378909;32;318871;-83
2023/02/20 00:58:29;;;;;;;29.20;18.03;;;;;;;;;;4386996;32;337430;-82
2023/02/20 01:00:56;;;;;;;23.40;17.93;;;;;;;;;;4389129;32;319094;-83
2023/02/20 01:03:26;;;;;;;32.40;18.67;;;;;;;;;;4377281;32;318997;-82
2023/02/20 01:05:53;;;;;;;26.37;19.63;;;;;;;;;;4388593;32;318681;-82
2023/02/20 01:08:20;;;;;;;31.53;24.60;;;;;;;;;;4376409;32;318929;-82
2023/02/20 01:10:48;;;;;;;30.90;23.80;;;;;;;;;;4388523;32;318961;-82
2023/02/20 01:13:15;;;;;;;25.03;19.83;;;;;;;;;;4377082;32;318833;-82
2023/02/20 01:15:43;;;;;;;27.83;20.23;;;;;;;;;;4388446;32;318792;-81
2023/02/20 01:18:10;;;;;;;28.73;22.07;;;;;;;;;;4377938;32;318721;-84
2023/02/20 01:20:39;;;;;;;34.87;21.50;;;;;;;;;;4388837;32;319131;-81
2023/02/20 01:23:06;;;;;;;30.33;21.03;;;;;;;;;;4375818;32;318927;-82
2023/02/20 01:25:34;;;;;;;26.57;21.37;;;;;;;;;;4388297;32;318790;-82
2023/02/20 01:28:01;;;;;;;28.27;19.70;;;;;;;;;;4375444;32;400133;-82
2023/02/20 01:30:28;;;;;;;24.97;19.17;;;;;;;;;;4387525;32;318740;-82
2023/02/20 01:32:56;;;;;;;28.53;19.27;;;;;;;;;;4388234;32;318763;-82
2023/02/20 01:35:24;;;;;;;23.73;16.63;;;;;;;;;;4377457;32;318780;-82
2023/02/20 01:37:52;;;;;;;28.07;16.27;;;;;;;;;;4388084;32;319018;-81
2023/02/20 01:40:21;;;;;;;22.93;16.43;;;;;;;;;;4378632;32;318683;-82
2023/02/20 01:42:49;;;;;;;22.73;15.80;;;;;;;;;;4387672;32;318910;-82
2023/02/20 01:45:28;;;;;;;19.73;15.27;;;;;;;;;;4377349;32;318615;-84
2023/02/20 01:47:57;;;;;;;19.07;15.03;;;;;;;;;;4385645;32;318810;-82
2023/02/20 01:50:27;;;;;;;18.03;14.40;;;;;;;;;;4373965;32;418013;-81
2023/02/20 01:53:00;;;;;;;16.60;12.70;;;;;;;;;;4387784;32;318947;-82
2023/02/20 01:55:31;;;;;;;17.67;14.07;;;;;;;;;;4374884;32;421223;-82
2023/02/20 01:58:01;;;;;;;17.00;13.67;;;;;;;;;;4389413;32;318757;-82
2023/02/20 02:00:29;;;;;;;18.17;14.40;;;;;;;;;;4383499;32;417819;-81
2023/02/20 02:03:03;;;;;;;22.47;14.27;;;;;;;;;;4396004;32;318768;-82
2023/02/20 02:05:33;;;;;;;15.60;13.10;;;;;;;;;;4391206;32;418000;-82
2023/02/20 02:08:06;;;;;;;18.17;13.23;;;;;;;;;;4384812;32;318740;-85
2023/02/20 02:10:38;;;;;;;18.70;13.10;;;;;;;;;;4385646;32;319400;-81
2023/02/20 02:13:07;;;;;;;16.23;13.67;;;;;;;;;;4377034;32;318910;-82
2023/02/20 02:15:34;;;;;;;18.27;12.73;;;;;;;;;;4385462;32;350651;-81
2023/02/20 02:18:37;;;;;;;15.67;12.90;;;;;;;;;;4375715;32;319003;-82
2023/02/20 02:21:43;;;;;;;23.07;13.83;;;;;;;;;;4370338;32;318753;-82
2023/02/20 02:24:51;;;;;;;21.20;14.93;;;;;;;;;;4375227;32;347367;-82
2023/02/20 02:28:00;;;;;;;25.87;14.83;;;;;;;;;;4377655;32;319038;-81
2023/02/20 02:31:06;;;;;;;21.93;13.50;;;;;;;;;;4374598;32;418550;-81
2023/02/20 02:33:47;;;;;;;16.70;12.33;;;;;;;;;;4370738;32;418865;-82
2023/02/20 02:36:38;;;;;;;19.67;13.03;;;;;;;;;;4377894;32;318821;-82
2023/02/20 02:39:16;;;;;;;17.73;12.20;;;;;;;;;;4376809;32;318788;-82
2023/02/20 02:41:53;;;;;;;18.40;13.30;;;;;;;;;;4386992;32;318748;-82
2023/02/20 02:44:24;;;;;;;16.77;13.00;;;;;;;;;;4375934;32;330039;-82
2023/02/20 02:46:58;;;;;;;14.30;12.67;;;;;;;;;;4386732;32;318945;-82
2023/02/20 02:49:31;;;;;;;14.63;12.40;;;;;;;;;;4373937;32;419116;-81
2023/02/20 02:52:02;;;;;;;14.10;12.47;;;;;;;;;;4387283;32;318891;-81
2023/02/20 02:54:30;;;;;;;14.67;12.00;;;;;;;;;;4374463;32;419020;-82
2023/02/20 02:57:23;;;;;;;12.73;11.07;;;;;;;;;;4384970;32;318634;-81
2023/02/20 02:59:55;;;;;;;15.77;12.10;;;;;;;;;;4374275;32;418879;-82
2023/02/20 03:02:24;;;;;;;21.30;16.30;;;;;;;;;;4375583;32;318524;-82
2023/02/20 03:04:54;;;;;;;34.50;25.60;;;;;;;;;;4385039;32;318742;-86
2023/02/20 03:07:24;;;;;;;24.80;20.30;;;;;;;;;;4374777;32;318652;-83
2023/02/20 03:09:54;;;;;;;18.73;15.03;;;;;;;;;;4386390;32;318774;-82
2023/02/20 03:12:23;;;;;;;16.33;12.87;;;;;;;;;;4374690;32;319194;-82
2023/02/20 03:17:45;;;;;;;15.43;11.13;;;;;;;;;;4374433;32;389973;-81
2023/02/20 03:20:16;;;;;;;14.00;10.70;;;;;;;;;;4375901;32;319030;-82
2023/02/20 03:22:48;;;;;;;12.30;9.67;;;;;;;;;;4385621;32;347287;-82
2023/02/20 03:25:19;;;;;;;10.60;9.10;;;;;;;;;;4376461;32;317966;-82
2023/02/20 03:27:52;;;;;;;17.67;13.00;;;;;;;;;;4385011;32;317952;-81
2023/02/20 03:30:24;;;;;;;16.45;14.70;;;;;;;;;;4372673;32;360830;-82
2023/02/20 03:44:18;;;;;;;27.83;17.07;;;;;;;;;;4373143;32;318983;-81
2023/02/20 03:46:48;;;;;;;24.87;17.33;;;;;;;;;;4386286;32;317779;-81
2023/02/20 03:49:21;;;;;;;29.90;19.63;;;;;;;;;;4373569;32;318990;-82
2023/02/20 03:51:49;;;;;;;21.83;17.40;;;;;;;;;;4385232;32;318887;-81
2023/02/20 03:54:18;;;;;;;27.00;18.43;;;;;;;;;;4374324;32;318773;-82
2023/02/20 03:56:51;;;;;;;22.57;16.40;;;;;;;;;;4383648;32;318833;-82
2023/02/20 03:59:23;;;;;;;15.97;11.03;;;;;;;;;;4374110;32;319282;-82
2023/02/20 04:01:54;;;;;;;24.63;16.47;;;;;;;;;;4383428;32;318996;-82
2023/02/20 04:04:26;;;;;;;19.00;14.00;;;;;;;;;;4375490;32;318879;-82
2023/02/20 04:06:55;;;;;;;13.47;8.47;;;;;;;;;;4385979;32;319016;-82
2023/02/20 04:09:28;;;;;;;10.20;7.10;;;;;;;;;;4374881;32;323143;-84
2023/02/20 04:12:03;;;;;;;9.10;5.90;;;;;;;;;;4386128;32;317801;-81
2023/02/20 04:14:32;;;;;;;5.80;5.00;;;;;;;;;;4373640;32;415976;-83
2023/02/20 04:17:05;;;;;;;7.57;5.60;;;;;;;;;;4385376;32;316624;-83
2023/02/20 04:19:33;;;;;;;10.17;5.23;;;;;;;;;;4372746;32;416353;-81
2023/02/20 04:22:03;;;;;;;6.37;4.10;;;;;;;;;;4377692;32;379838;-82
2023/02/20 04:24:36;;;;;;;5.83;4.60;;;;;;;;;;4386009;32;316998;-82
2023/02/20 04:27:04;;;;;;;9.03;6.47;;;;;;;;;;4376418;32;316886;-81
2023/02/20 04:29:31;;;;;;;13.57;8.63;;;;;;;;;;4388655;32;316777;-81
2023/02/20 04:31:59;;;;;;;26.47;17.43;;;;;;;;;;4389256;32;318077;-81
2023/02/20 04:34:27;;;;;;;24.00;14.90;;;;;;;;;;4376180;32;418007;-81
2023/02/20 04:37:07;;;;;;;17.07;5.97;;;;;;;;;;4388427;32;318928;-81
2023/02/20 04:39:36;;;;;;;4.97;3.80;;;;;;;;;;4376313;32;417270;-81
2023/02/20 04:42:04;;;;;;;5.93;3.93;;;;;;;;;;4378279;32;317036;-82
2023/02/20 04:44:32;;;;;;;6.53;4.43;;;;;;;;;;4386628;32;316838;-81
2023/02/20 04:47:00;;;;;;;4.50;3.60;;;;;;;;;;4381055;32;316829;-82
2023/02/20 04:49:28;;;;;;;5.93;3.90;;;;;;;;;;4388815;32;316913;-82
2023/02/20 04:51:55;;;;;;;5.70;3.97;;;;;;;;;;4388526;32;316759;-81
2023/02/20 04:54:23;;;;;;;5.53;4.47;;;;;;;;;;4378545;32;316920;-82
2023/02/20 04:56:52;;;;;;;4.70;3.50;;;;;;;;;;4388010;32;315631;-82
2023/02/20 04:59:19;;;;;;;6.97;5.67;;;;;;;;;;4378179;32;316977;-82
2023/02/20 05:01:50;;;;;;;9.77;6.13;;;;;;;;;;4388991;32;317049;-82
2023/02/20 05:04:18;;;;;;;14.57;5.67;;;;;;;;;;4377966;32;316820;-81
2023/02/20 05:06:49;;;;;;;10.50;5.20;;;;;;;;;;4388532;32;317874;-82
2023/02/20 05:09:17;;;;;;;11.57;5.07;;;;;;;;;;4377552;32;318018;-83
2023/02/20 05:11:45;;;;;;;4.43;3.90;;;;;;;;;;4386703;32;318277;-80
2023/02/20 05:14:15;;;;;;;4.00;3.43;;;;;;;;;;4377765;32;316661;-82
2023/02/20 05:16:44;;;;;;;5.07;3.50;;;;;;;;;;4388764;32;316959;-78
2023/02/20 05:19:12;;;;;;;7.13;4.80;;;;;;;;;;4377870;32;316764;-79
2023/02/20 05:24:27;;;;;;;8.67;5.50;;;;;;;;;;4375393;32;387824;-80
2023/02/20 05:26:55;;;;;;;4.73;2.93;;;;;;;;;;4387305;32;316750;-80
2023/02/20 05:29:24;;;;;;;14.90;2.43;;;;;;;;;;4376366;32;317110;-81
2023/02/20 05:31:51;;;;;;;12.40;3.10;;;;;;;;;;4385826;32;317655;-80
2023/02/20 05:34:21;;;;;;;6.40;3.37;;;;;;;;;;4377588;32;317759;-81
2023/02/20 05:36:48;;;;;;;11.33;3.30;;;;;;;;;;4387197;32;316748;-81
2023/02/20 05:39:16;;;;;;;4.73;3.73;;;;;;;;;;4377666;32;317909;-82
2023/02/20 05:41:43;;;;;;;11.50;4.10;;;;;;;;;;4388861;32;316692;-83
2023/02/20 05:44:10;;;;;;;5.77;3.43;;;;;;;;;;4387324;32;317495;-82
2023/02/20 05:46:41;;;;;;;5.33;3.17;;;;;;;;;;4396675;32;316574;-82
2023/02/20 05:49:09;;;;;;;7.83;4.17;;;;;;;;;;4464171;27;316274;-82
2023/02/20 05:51:55;;;;;;;4.50;3.30;;;;;;;;;;4416857;27;316627;-93
2023/02/20 05:54:33;;;;;;;7.47;3.20;;;;;;;;;;4407178;32;316628;-93
2023/02/20 05:57:07;;;;;;;7.93;3.93;;;;;;;;;;4406682;32;316373;-94
2023/02/20 05:59:34;;;;;;;6.97;4.10;;;;;;;;;;4400153;32;419512;-94
2023/02/20 06:02:05;;;;;;;5.73;4.50;;;;;;;;;;4391887;32;315528;-94
2023/02/20 06:04:35;;;;;;;4.57;4.07;;;;;;;;;;4408446;32;316468;-93
2023/02/20 06:07:04;;;;;;;5.70;3.67;;;;;;;;;;4398537;32;316586;-93
2023/02/20 06:09:33;;;;;;;5.43;3.90;;;;;;;;;;4408747;32;316595;-92
2023/02/20 06:14:27;;;;;;;8.10;5.40;;;;;;;;;;4410495;32;317659;-93
2023/02/20 06:17:00;;;;;;;11.20;6.07;;;;;;;;;;4411731;32;316413;-93
2023/02/20 06:19:30;;;;;;;9.20;6.50;;;;;;;;;;4403240;32;418698;-92
2023/02/20 06:22:05;;;;;;;17.23;7.67;;;;;;;;;;4419198;32;315343;-92
2023/02/20 06:24:42;;;;;;;18.07;10.60;;;;;;;;;;4363375;32;387502;-93
2023/02/20 06:29:56;;;;;;;24.80;8.50;;;;;;;;;;4407909;32;316276;-93
2023/02/20 06:32:30;;;;;;;10.07;6.90;;;;;;;;;;4396854;32;316129;-92
2023/02/20 06:37:46;;;;;;;13.43;7.80;;;;;;;;;;4405459;32;389994;-92
2023/02/20 06:40:14;;;;;;;24.97;10.03;;;;;;;;;;4395381;32;316248;-93
2023/02/20 06:42:43;;;;;;;20.87;12.90;;;;;;;;;;4414928;32;317271;-91
2023/02/20 06:45:12;;;;;;;19.47;10.97;;;;;;;;;;4404969;32;317320;-93
2023/02/20 06:47:39;;;;;;;8.30;5.07;;;;;;;;;;4401645;32;317192;-94
2023/02/20 06:50:10;;;;;;;15.93;9.00;;;;;;;;;;4394565;32;315408;-92
2023/02/20 06:52:42;;;;;;;10.83;7.93;;;;;;;;;;4402071;32;317393;-93
2023/02/20 06:55:10;;;;;;;12.57;5.37;;;;;;;;;;4391902;32;317441;-93
2023/02/20 06:57:37;;;;;;;9.03;4.20;;;;;;;;;;4399703;32;317592;-92
2023/02/20 07:00:06;;;;;;;6.43;3.70;;;;;;;;;;4385877;32;327274;-91
2023/02/20 07:02:35;;;;;;;10.00;4.83;;;;;;;;;;4389449;32;315194;-94
2023/02/20 07:05:08;;;;;;;10.53;5.10;;;;;;;;;;4379259;32;317421;-93
2023/02/20 07:07:41;;;;;;;7.30;4.13;;;;;;;;;;4404564;32;317509;-93
2023/02/20 07:10:08;;;;;;;9.83;7.30;;;;;;;;;;4397149;32;315346;-93
2023/02/20 07:12:37;;;;;;;6.07;4.10;;;;;;;;;;4408708;32;315206;-93
2023/02/20 07:15:10;;;;;;;3.73;2.87;;;;;;;;;;4383890;32;378652;-92
2023/02/20 07:17:41;;;;;;;8.10;3.50;;;;;;;;;;4390403;32;316779;-92
2023/02/20 07:20:11;;;;;;;4.07;2.90;;;;;;;;;;4377515;32;316314;-92
2023/02/20 07:22:56;;;;;;;4.47;2.57;;;;;;;;;;4406227;32;316357;-92
2023/02/20 07:25:25;;;;;;;4.83;2.87;;;;;;;;;;4392957;32;316469;-92
2023/02/20 07:27:53;;;;;;;8.27;3.23;;;;;;;;;;4391769;32;315187;-93
2023/02/20 07:30:23;;;;;;;8.23;2.03;;;;;;;;;;4398779;32;316361;-93
2023/02/20 07:35:39;;;;;;;4.80;2.10;;;;;;;;;;4365520;32;389147;-92
2023/02/20 07:38:18;;;;;;;3.70;2.80;;;;;;;;;;4402793;32;316308;-94
2023/02/20 07:40:51;;;;;;;2.83;1.80;;;;;;;;;;4401106;32;316193;-93
2023/02/20 07:43:19;;;;;;;5.43;2.87;;;;;;;;;;4407828;27;316581;-81
2023/02/20 07:45:46;;;;;;;3.20;2.00;;;;;;;;;;4399656;32;316979;-82
2023/02/20 07:48:14;;;;;;;6.70;2.80;;;;;;;;;;4388526;32;323395;-80
2023/02/20 07:50:41;;;;;;;3.73;2.30;;;;;;;;;;4400640;32;316539;-81
2023/02/20 07:53:14;;;;;;;10.47;3.63;;;;;;;;;;4388940;32;316626;-81
2023/02/20 07:55:41;;;;;;;4.43;2.97;;;;;;;;;;4400167;32;317575;-81
2023/02/20 07:58:10;;;;;;;4.63;2.63;;;;;;;;;;4387495;32;316808;-81
2023/02/20 08:00:37;;;;;;;6.30;2.33;;;;;;;;;;4398510;32;316939;-84
2023/02/20 08:03:05;;;;;;;12.60;3.40;;;;;;;;;;4387664;32;316755;-81
2023/02/20 08:05:32;;;;;;;3.43;2.00;;;;;;;;;;4401562;32;317699;-80
2023/02/20 08:08:00;;;;;;;10.33;3.33;;;;;;;;;;4400395;32;316886;-83
2023/02/20 08:10:29;;;;;;;8.27;3.80;;;;;;;;;;4387357;32;416946;-79
2023/02/20 08:12:57;;;;;;;6.63;4.00;;;;;;;;;;4401056;32;316932;-79
2023/02/20 08:15:24;;;;;;;13.97;5.80;;;;;;;;;;4389880;32;316897;-80
2023/02/20 08:17:51;;;;;;;2.37;1.60;;;;;;;;;;4399239;32;326052;-80
2023/02/20 08:20:20;;;;;;;2.17;1.27;;;;;;;;;;4387401;32;316838;-80
2023/02/20 08:22:51;;;;;;;5.40;2.37;;;;;;;;;;4399941;32;317493;-82
2023/02/20 08:25:19;;;;;;;3.13;2.23;;;;;;;;;;4388165;32;316822;-82
2023/02/20 08:27:49;;;;;;;4.97;3.00;;;;;;;;;;4398543;32;316798;-83
2023/02/20 08:30:22;;;;;;;3.13;2.50;;;;;;;;;;4388698;32;316710;-79
2023/02/20 08:32:50;;;;;;;4.03;2.07;;;;;;;;;;4396739;32;316660;-81
2023/02/20 08:35:18;;;;;;;2.60;1.40;;;;;;;;;;4387586;32;317043;-80
2023/02/20 08:37:46;;;;;;;5.33;1.73;;;;;;;;;;4398653;32;343799;-82
2023/02/20 08:40:14;;;;;;;7.63;3.03;;;;;;;;;;4388082;32;316996;-80
2023/02/20 08:42:42;;;;;;;12.50;5.87;;;;;;;;;;4398907;32;317087;-84
2023/02/20 08:45:11;;;;;;;1.93;1.00;;;;;;;;;;4388550;32;317797;-80
2023/02/20 08:47:39;;;;;;;8.13;2.17;;;;;;;;;;4396888;32;316344;-80
2023/02/20 08:50:09;;;;;;;8.13;1.33;;;;;;;;;;4389273;32;316586;-83
2023/02/20 08:52:39;;;;;;;10.23;1.60;;;;;;;;;;4396871;32;316782;-81
2023/02/20 08:55:06;;;;;;;14.50;2.27;;;;;;;;;;4388398;32;317700;-80
2023/02/20 08:57:34;;;;;;;1.33;1.17;;;;;;;;;;4399197;32;317802;-83
2023/02/20 09:00:01;;;;;;;12.27;2.30;;;;;;;;;;4388731;32;316736;-79
2023/02/20 09:02:30;;;;;;;7.60;1.30;;;;;;;;;;4398666;32;318114;-81
2023/02/20 09:04:58;;;;;;;7.07;1.80;;;;;;;;;;4400880;32;316798;-84
2023/02/20 09:07:26;;;;;;;3.10;1.20;;;;;;;;;;4385669;32;387171;-84
2023/02/20 09:09:54;;;;;;;1.27;1.17;;;;;;;;;;4395034;32;316502;-79
2023/02/20 09:12:21;;;;;;;1.67;0.80;;;;;;;;;;4392176;32;316633;-81
2023/02/20 09:14:49;;;;;;;3.37;1.57;;;;;;;;;;4402554;32;316727;-79
2023/02/20 09:17:17;;;;;;;12.67;2.50;;;;;;;;;;4390746;32;316841;-80
2023/02/20 09:19:47;;;;;;;17.57;1.70;;;;;;;;;;4388409;32;317730;-79
2023/02/20 09:22:15;;;;;;;3.03;1.30;;;;;;;;;;4386619;32;317828;-81
2023/02/20 09:24:43;;;;;;;6.53;1.30;;;;;;;;;;4401885;32;316444;-81
2023/02/20 09:27:10;;;;;;;14.20;2.00;;;;;;;;;;4394649;32;316866;-78
2023/02/20 09:29:39;;;;;;;6.37;1.83;;;;;;;;;;4404169;32;317514;-81
2023/02/20 09:32:07;;;;;;;6.27;1.27;;;;;;;;;;4403541;32;316465;-83
2023/02/20 09:34:36;;;;;;;20.53;1.93;;;;;;;;;;4411464;32;316594;-84
2023/02/20 09:37:07;;;;;;;13.37;1.90;;;;;;;;;;4388615;32;317774;-84
2023/02/20 09:39:35;;;;;;;25.57;2.83;;;;;;;;;;4401290;32;317624;-85
2023/02/20 09:42:17;;;;;;;1.00;0.90;;;;;;;;;;4387508;32;317432;-83
2023/02/20 09:44:54;;;;;;;32.20;2.60;;;;;;;;;;4401533;32;316331;-82
2023/02/20 09:47:38;;;;;;;16.10;2.53;;;;;;;;;;4392646;32;316684;-82
2023/02/20 09:50:13;;;;;;;5.63;0.90;;;;;;;;;;4391897;32;317764;-82
2023/02/20 09:52:46;;;;;;;4.67;1.97;;;;;;;;;;4402581;32;330812;-83
2023/02/20 09:55:19;;;;;;;11.37;1.80;;;;;;;;;;4391874;32;316760;-83
2023/02/20 09:57:50;;;;;;;19.60;3.83;;;;;;;;;;4402656;32;317768;-83
2023/02/20 10:00:26;;;;;;;16.90;2.87;;;;;;;;;;4391806;32;317588;-84
2023/02/20 10:02:58;;;;;;;2.50;1.73;;;;;;;;;;4402724;32;317827;-84
2023/02/20 10:05:28;;;;;;;3.30;1.30;;;;;;;;;;4388760;32;415703;-84
2023/02/20 10:07:57;;;;;;;12.37;3.80;;;;;;;;;;4401364;32;317599;-82
2023/02/20 10:10:27;;;;;;;15.97;3.03;;;;;;;;;;4387953;32;417107;-83
2023/02/20 10:13:05;;;;;;;15.13;4.93;;;;;;;;;;4401741;32;317559;-83
2023/02/20 10:15:41;;;;;;;10.17;2.20;;;;;;;;;;4387769;32;417107;-82
2023/02/20 10:18:25;;;;;;;7.27;2.23;;;;;;;;;;4389640;32;317672;-81
2023/02/20 10:21:00;;;;;;;1.87;1.07;;;;;;;;;;4400288;32;316534;-82
2023/02/20 10:23:41;;;;;;;2.47;1.63;;;;;;;;;;4384775;32;419735;-83
2023/02/20 10:26:19;;;;;;;22.03;2.23;;;;;;;;;;4382496;32;316883;-83
2023/02/20 10:28:49;;;;;;;7.57;1.77;;;;;;;;;;4400913;32;317933;-84
2023/02/20 10:31:29;;;;;;;26.17;2.23;;;;;;;;;;4388980;32;316596;-82
2023/02/20 10:34:02;;;;;;;1.30;1.13;;;;;;;;;;4399181;32;317725;-83
2023/02/20 10:36:36;;;;;;;1.73;0.80;;;;;;;;;;4380238;32;417130;-84
2023/02/20 10:39:09;;;;;;;6.40;1.30;;;;;;;;;;4389034;32;316718;-83
2023/02/20 10:41:42;;;;;;;3.03;1.63;;;;;;;;;;4401239;32;316630;-83
2023/02/20 10:44:18;;;;;;;10.93;1.80;;;;;;;;;;4390444;32;316642;-82
2023/02/20 10:46:51;;;;;;;9.40;1.60;;;;;;;;;;4400514;32;317534;-83
2023/02/20 10:49:26;;;;;;;2.43;1.63;;;;;;;;;;4390316;32;339691;-82
2023/02/20 10:52:00;;;;;;;3.40;1.30;;;;;;;;;;4401063;32;316630;-82
2023/02/20 10:54:35;;;;;;;8.47;1.50;;;;;;;;;;4388125;32;416267;-87
2023/02/20 10:57:08;;;;;;;10.50;3.37;;;;;;;;;;4386253;32;316718;-81
2023/02/20 10:59:44;;;;;;;2.47;1.40;;;;;;;;;;4400122;32;317903;-82
2023/02/20 11:02:18;;;;;;;4.07;1.10;;;;;;;;;;4389165;32;316608;-83
2023/02/20 11:04:51;;;;;;;3.43;1.77;;;;;;;;;;4400259;32;316655;-81
2023/02/20 11:07:21;;;;;;;5.33;1.67;;;;;;;;;;4389645;32;316773;-82
2023/02/20 11:09:50;;;;;;;17.67;2.67;;;;;;;;;;4400272;32;316884;-81
2023/02/20 11:12:26;;;;;;;4.17;2.17;;;;;;;;;;4389877;32;318226;-82
2023/02/20 11:14:56;;;;;;;1.40;1.10;;;;;;;;;;4399047;32;316590;-82
2023/02/20 11:17:27;;;;;;;2.47;1.37;;;;;;;;;;4390525;32;353103;-81
2023/02/20 11:19:55;;;;;;;15.87;5.57;;;;;;;;;;4400023;32;316566;-81
2023/02/20 11:22:41;;;;;;;2.60;1.53;;;;;;;;;;4387906;32;317798;-82
2023/02/20 11:25:21;;;;;;;5.63;1.83;;;;;;;;;;4390153;32;316943;-81
2023/02/20 11:27:50;;;;;;;3.13;1.90;;;;;;;;;;4401099;32;316779;-81
2023/02/20 11:30:27;;;;;;;1.60;1.47;;;;;;;;;;4391153;32;316748;-82
2023/02/20 11:33:02;;;;;;;2.40;1.10;;;;;;;;;;4399950;32;315607;-83
2023/02/20 11:35:33;;;;;;;5.67;1.20;;;;;;;;;;4388560;32;416060;-82
2023/02/20 11:38:27;;;;;;;7.10;1.67;;;;;;;;;;4399124;32;316706;-82
2023/02/20 11:41:13;;;;;;;4.47;2.33;;;;;;;;;;4400263;32;348789;-82
2023/02/20 11:43:48;;;;;;;7.43;1.90;;;;;;;;;;4387501;32;417053;-83
2023/02/20 11:46:17;;;;;;;2.27;1.57;;;;;;;;;;4389614;32;316829;-82
2023/02/20 11:49:06;;;;;;;3.23;1.50;;;;;;;;;;4401398;32;316673;-82
2023/02/20 11:51:36;;;;;;;2.83;1.73;;;;;;;;;;4381842;32;417225;-82
2023/02/20 11:54:13;;;;;;;2.43;1.60;;;;;;;;;;4390301;32;316736;-83
2023/02/20 11:56:57;;;;;;;4.10;2.80;;;;;;;;;;4399089;32;316883;-81
2023/02/20 11:59:35;;;;;;;3.30;2.13;;;;;;;;;;4389106;32;316775;-86
2023/02/20 12:02:23;;;;;;;6.60;3.43;;;;;;;;;;4388594;32;328718;-83
2023/02/20 12:05:12;;;;;;;6.20;1.93;;;;;;;;;;4400769;32;316865;-88
2023/02/20 12:07:42;;;;;;;3.43;1.77;;;;;;;;;;4386365;32;417248;-80
2023/02/20 12:10:30;;;;;;;3.43;1.83;;;;;;;;;;4390277;32;316609;-81
2023/02/20 12:12:59;;;;;;;4.70;1.90;;;;;;;;;;4397704;32;316814;-81
2023/02/20 12:15:28;;;;;;;1.90;1.47;;;;;;;;;;4386429;32;416796;-80
2023/02/20 12:18:36;;;;;;;3.53;2.37;;;;;;;;;;4400722;32;316807;-79
2023/02/20 12:21:14;;;;;;;3.28;2.00;;;;;;;;;;4388140;32;416675;-79
2023/02/20 12:23:58;;;;;;;5.20;1.63;;;;;;;;;;4400629;32;316518;-81
2023/02/20 12:26:52;;;;;;;3.85;2.55;;;;;;;;;;4387923;32;417331;-81
2023/02/20 12:29:35;;;;;;;4.10;1.55;;;;;;;;;;4390273;32;316815;-82
2023/02/20 12:32:17;;;;;;;3.53;1.95;;;;;;;;;;4382223;32;316722;-81
2023/02/20 12:35:03;;;;;;;3.70;1.65;;;;;;;;;;4400828;32;316683;-81
2023/02/20 12:37:47;;;;;;;5.00;1.30;;;;;;;;;;4386239;32;417712;-80
2023/02/20 12:40:29;;;;;;;1.60;1.30;;;;;;;;;;4389681;32;316763;-82
2023/02/20 12:43:05;;;;;;;3.05;1.58;;;;;;;;;;4399573;32;316863;-81
2023/02/20 12:45:39;;;;;;;1.87;1.43;;;;;;;;;;4387179;32;417364;-80
2023/02/20 12:48:27;;;;;;;3.27;1.93;;;;;;;;;;4393076;32;316708;-79
2023/02/20 12:51:08;;;;;;;2.23;1.70;;;;;;;;;;4403328;32;346851;-80
2023/02/20 12:53:50;;;;;;;4.97;1.77;;;;;;;;;;4390135;32;419871;-79
2023/02/20 12:56:29;;;;;;;2.97;1.77;;;;;;;;;;4391546;32;316702;-81
2023/02/20 12:59:03;;;;;;;3.95;2.70;;;;;;;;;;4402812;32;316758;-79
2023/02/20 13:01:35;;;;;;;2.33;2.12;;;;;;;;;;4390144;32;417368;-79
2023/02/20 13:04:07;;;;;;;4.57;1.70;;;;;;;;;;4394174;32;316954;-81
2023/02/20 13:06:41;;;;;;;5.50;2.70;;;;;;;;;;4404238;32;316966;-78
2023/02/20 13:09:18;;;;;;;3.93;1.47;;;;;;;;;;4391795;32;316756;-81
2023/02/20 13:11:50;;;;;;;4.05;2.15;;;;;;;;;;4402636;32;316587;-79
2023/02/20 13:14:28;;;;;;;4.03;2.10;;;;;;;;;;4392818;32;316823;-79
2023/02/20 13:17:08;;;;;;;2.58;1.50;;;;;;;;;;4407433;32;316728;-84
2023/02/20 13:19:41;;;;;;;4.93;1.40;;;;;;;;;;4398511;32;417200;-84
2023/02/20 13:22:09;;;;;;;2.53;1.80;;;;;;;;;;4396412;32;316523;-80
2023/02/20 13:24:37;;;;;;;3.40;1.77;;;;;;;;;;4403073;32;316781;-81
2023/02/20 13:27:09;;;;;;;3.30;2.03;;;;;;;;;;4390992;32;364907;-79
2023/02/20 13:29:38;;;;;;;3.60;1.80;;;;;;;;;;4401604;32;317026;-78
2023/02/20 13:32:25;;;;;;;1.70;1.23;;;;;;;;;;4389706;32;316970;-79
2023/02/20 13:34:55;;;;;;;2.07;1.60;;;;;;;;;;4403700;32;316693;-79
2023/02/20 13:37:54;;;;;;;2.20;1.23;;;;;;;;;;4391354;32;316794;-79
2023/02/20 13:40:40;;;;;;;1.42;1.20;;;;;;;;;;4392041;32;316584;-79
2023/02/20 13:43:35;;;;;;;5.87;2.83;;;;;;;;;;4390661;32;316793;-79
2023/02/20 13:46:19;;;;;;;6.65;3.15;;;;;;;;;;4362548;32;355413;-79
2023/02/20 13:48:50;;;;;;;7.07;2.80;;;;;;;;;;4402132;32;316758;-79
2023/02/20 13:51:35;;;;;;;2.80;1.73;;;;;;;;;;4390710;32;317281;-80
2023/02/20 13:54:27;;;;;;;10.87;5.17;;;;;;;;;;4391146;32;316636;-78
2023/02/20 13:57:00;;;;;;;4.40;2.23;;;;;;;;;;4402998;32;317928;-78
2023/02/20 13:59:28;;;;;;;3.97;2.80;;;;;;;;;;4388937;32;416937;-79
2023/02/20 14:02:02;;;;;;;8.73;7.80;;;;;;;;;;4402366;32;316966;-79
2023/02/20 14:04:32;;;;;;;3.60;2.87;;;;;;;;;;4389458;32;417371;-78
2023/02/20 14:07:00;;;;;;;3.97;1.70;;;;;;;;;;4403357;32;316905;-77
2023/02/20 14:09:30;;;;;;;2.80;2.17;;;;;;;;;;4389158;32;416256;-78
2023/02/20 14:12:08;;;;;;;7.63;5.53;;;;;;;;;;4402887;32;316854;-77
2023/02/20 14:14:41;;;;;;;2.40;1.33;;;;;;;;;;4389728;32;416438;-77
2023/02/20 14:17:14;;;;;;;1.93;1.60;;;;;;;;;;4391995;32;316612;-80
2023/02/20 14:19:45;;;;;;;33.67;22.83;;;;;;;;;;4402939;32;316879;-79
2023/02/20 14:22:25;;;;;;;11.80;6.83;;;;;;;;;;4392497;32;319060;-82
2023/02/20 14:25:22;;;;;;;9.27;3.03;;;;;;;;;;4400360;32;317557;-79
2023/02/20 14:27:50;;;;;;;8.07;5.50;;;;;;;;;;4388576;32;417109;-79
2023/02/20 14:30:20;;;;;;;4.47;3.23;;;;;;;;;;4391867;32;316495;-79
2023/02/20 14:32:50;;;;;;;9.20;3.10;;;;;;;;;;4402634;32;316677;-78
2023/02/20 14:35:47;;;;;;;8.37;6.70;;;;;;;;;;4392651;32;316730;-78
2023/02/20 14:38:25;;;;;;;15.10;5.13;;;;;;;;;;4363648;32;316808;-78
2023/02/20 14:40:53;;;;;;;7.13;4.33;;;;;;;;;;4402294;32;317738;-81
2023/02/20 14:43:22;;;;;;;12.67;6.70;;;;;;;;;;4390920;32;316970;-81
2023/02/20 14:46:00;;;;;;;8.75;5.22;;;;;;;;;;4402303;32;317710;-78
2023/02/20 14:48:29;;;;;;;9.00;4.50;;;;;;;;;;4388579;32;416812;-80
2023/02/20 14:51:17;;;;;;;11.30;5.80;;;;;;;;;;4402693;32;316627;-79
2023/02/20 14:53:56;;;;;;;3.43;2.87;;;;;;;;;;4388586;32;418154;-80
2023/02/20 14:56:24;;;;;;;5.73;3.30;;;;;;;;;;4392470;32;316720;-80
2023/02/20 14:58:51;;;;;;;8.60;2.57;;;;;;;;;;4401305;32;317034;-81
2023/02/20 15:01:34;;;;;;;3.40;2.23;;;;;;;;;;4389828;32;316650;-79
2023/02/20 15:04:04;;;;;;;4.03;2.08;;;;;;;;;;4388273;32;316868;-80
2023/02/20 15:06:36;;;;;;;3.60;2.13;;;;;;;;;;4400668;32;316829;-81
2023/02/20 15:09:04;;;;;;;3.77;3.13;;;;;;;;;;4390572;32;316629;-80
2023/02/20 15:11:33;;;;;;;2.30;1.50;;;;;;;;;;4402158;32;316804;-77
2023/02/20 15:14:02;;;;;;;11.70;2.20;;;;;;;;;;4396254;32;316594;-82
2023/02/20 15:16:34;;;;;;;5.93;1.67;;;;;;;;;;4402140;32;317622;-76
2023/02/20 15:19:01;;;;;;;8.70;4.00;;;;;;;;;;4389852;32;316792;-81
2023/02/20 15:21:40;;;;;;;4.73;2.73;;;;;;;;;;4401904;32;317398;-76